Delta State, Mississippi
Current Conditions -  °F | °C
As of 8:55 AM on Thursday 23 Oct 2014 (Local Time) from KRNV Reporting Station
Clear Clear  
Wind Chill: 51°   Ceiling: Unl
Heat Index: 51°   Visibility: 10mi
Dew Point: 48°   Wind: 5mph
Humidity: 88%   Direction: 70°ENE
Pressure: 30.19"   Gusts: NA
Location:  33.7476°N, 90.8364°W
Report Text: KRNV 231355Z AUTO 07004KT 10SM CLR 11/09 A3019 RMK AO2 T01060087
Loading
Personal Weather Stations






























Interactive Weather Map
Tropical Storm Tracking
New forecast layout! Learn more

10-Day Weather Forecast

Advertisements
Track Severe Weather on mobile